メインページ
METAR-TAF:

METAR-TAF

空港 :

ベオグラード, セルビア

ベオグラード・ニコラ・テスラ空港

緯度: 44-49N, 経度: 020-17E, 海抜: 96m

現時点の気象観測

当レポートは24分前の13:00(UTC)に作成
北/北東の風 8kt
気温 16°C
湿度 82%
気圧 1021 hPa
視程10km以上
高度1300ftの雲は散在している

METAR: LYBE 251300Z 03008KT 9999 SCT013 16/13 Q1021 NOSIG

時間: 15:24 (13:24 UTC)

予報

当レポートは2時間24分前の11:00(UTC)に作成
予報は25日の 12時(UTC)から 26日の 12時(UTC)まで有効
の風 7kt
視程: 8000m
26日の 02時(UTC)から 26日の 04時(UTC)まで徐々に
視程: 1500m
高度500ftの千切れ雲あり
確率 30% :
26日の 04時(UTC)から 26日の 06時(UTC)まで一時的に
視程: 0600m
高度200ftの千切れ雲あり
26日の 07時(UTC)から 26日の 09時(UTC)まで徐々に
視程10km以上
高度3300ftの雲は散在している

TAF: LYBE 251100Z 2512/2612 10007KT 8000 NSC TX19/2612Z TN10/2604Z BECMG 2602/2604 1500 BR BKN005 PROB30 TEMPO 2604/2606 0600 FG BKN002 BECMG 2607/2609 9999 NSW SCT033

4,000以上の空港の気象観測と天気予報(METAR報とTAF報)

利用可能な観測所は地図上に黄色い丸と赤い丸で示す。

丸の上にカーソルを重ねると観測所名を参照できる。

次にクリックすると気象観測と天気予報を参照できる。

マップの切り替え:黒色「×」印の緑ボタンをクリックして拡大、「-」印の緑ボタンをクリックして縮小、緑色の三角印をクリックして隣りの地図に切り替え


METAR-TAF: